Terminal Aerodrome Forecast
Issued by NWS Wilmington, OH

Current Version | Previous Version | Text Only | Print | Product List | Glossary Off
Versions: 1 2 3 4 5 6 7 8 9 10 11 12 13 14 15 16 17 18 19

000
FTUS41 KILN 071500 AAA
TAFCMH
TAF AMD
KCMH 071502Z 0715/0812 22012G20KT P6SM BKN040
     FM071700 22014G24KT P6SM VCSH BKN035
      TEMPO 0719/0723 5SM -TSRA BKN040CB
     FM072300 22012KT P6SM VCSH BKN035
      TEMPO 0810/0812 5SM -TSRA BR BKN025CB=

USA.gov is the U.S. government's official web portal to all federal, state and local government web resources and services.